الصفحة الرئيسية
METAR-TAF:

METAR-TAF

مطار :

مطار دون موينغ

بانكوك, تايلاند

دائرة عرض: 13-54-45N, خط طول: 100-36-24E, ارتفاع: 4 متر

مراقبة الطقس الحالي

تاريخ ووقت الإصدار 54 دقيقة قبل الساعة 04:00UTC
ريح 7 عقدةمن اتجاهات متغيرة
درجة الحرارة 33°درجة مئوية
الرطوبة 53%
ضغط 1013 hPa
الرؤية 10 كم أو أكثر
غيوم قليلة على ارتفاع 3000 قدم

METAR: VTBD 220400Z VRB07KT 9999 FEW030 33/22 Q1013 NOSIG

زمن: 11:54 (04:54 UTC)

توقعات

تاريخ ووقت الإصدار 5ساعات و 54 دقيقة قبل الساعة 23:00UTC
التوقعات صالحة من22 الساعة 00 UTC إلى 23 الساعة 06 UTC
ريح 8 عقدة من الجنوب
الرؤية 10 كم أو أكثر
غيوم قليلة على ارتفاع 2000 قدم

TAF: VTBD 212300Z 2200/2306 19008KT 9999 FEW020

أرصاد الطقس والتوقعات من أكثر من 4000 مطار (تقارير الطقس للمطار METAR والتنبؤ بالطقس بالمطارTAF).

المحطات المتاحة هي النقط الصفراء والحمراء على الخريطة.

حرك المؤشر فوق النقطة لمعرفة اسم المحطة.

ثم انقر لمعرفة أرصاد وتوقعات الطقس.

لتغيير الخارطة: اضغط على الأزرار الخضراء مع رمز الصليب الأسود للتكبير. على الزر الأخضر مع شرطة للتصغير، أو على الأسهم الخضراء للخرائط المجاورة.


METAR-TAF: